Station History

Weather Underground - logo

Station Historical Data
Daily Summary for February 20, 2018 Units:  English    Metric   Both
« Previous Day
Next Day »
Daily Weekly Monthly Yearly Custom
  High: Low: Average:
Temperature: 55.9 °F 27.7 °F 41.5 °F
Dew Point: 33.4 °F 22.8 °F 28.4 °F
Humidity: 89 % 32 % 63 %
Wind Speed: 5.8 mph 0.0 mph 1 mph
Wind Gust: 5.8 mph - -
Wind:- - SSW
Pressure: 30.29 in 30.14 in -
Precipitation: 0.00 in    
Historical Graphs
 
 
Tabular Data for February 20, 2018
Time Temperature Dew Point Pressure Wind Wind Speed Wind Gust Humidity Rainfall Rate (Hourly)
00:01 32.3 °F 28.6 °F 30.15 in Calm     86 % 0.00 in
00:06 32.3 °F 28.3 °F 30.15 in Calm     85 % 0.00 in
00:11 32.3 °F 28.6 °F 30.15 in Calm     86 % 0.00 in
00:16 32.1 °F 28.4 °F 30.15 in Calm     86 % 0.00 in
00:21 32.0 °F 28.3 °F 30.15 in Calm     86 % 0.00 in
00:26 32.0 °F 28.3 °F 30.14 in Calm     86 % 0.00 in
00:31 31.9 °F 27.9 °F 30.15 in Calm     85 % 0.00 in
00:36 31.8 °F 27.8 °F 30.15 in Calm     85 % 0.00 in
00:41 31.6 °F 27.6 °F 30.15 in Calm     85 % 0.00 in
00:46 31.5 °F 27.8 °F 30.15 in Calm     86 % 0.00 in
00:51 31.3 °F 27.6 °F 30.15 in Calm     86 % 0.00 in
00:56 31.0 °F 27.3 °F 30.15 in Calm     86 % 0.00 in
01:01 30.8 °F 27.4 °F 30.15 in Calm     87 % 0.00 in
01:06 30.6 °F 27.2 °F 30.16 in Calm     87 % 0.00 in
01:11 30.4 °F 27.0 °F 30.16 in Calm     87 % 0.00 in
01:16 30.3 °F 26.9 °F 30.16 in Calm     87 % 0.00 in
01:21 30.3 °F 26.9 °F 30.16 in Calm     87 % 0.00 in
01:26 30.4 °F 27.0 °F 30.16 in Calm     87 % 0.00 in
01:31 30.5 °F 27.1 °F 30.16 in Calm     87 % 0.00 in
01:36 30.3 °F 26.9 °F 30.16 in Calm     87 % 0.00 in
01:41 30.3 °F 27.2 °F 30.16 in Calm     88 % 0.00 in
01:46 30.2 °F 26.8 °F 30.16 in Calm     87 % 0.00 in
01:51 30.3 °F 26.9 °F 30.16 in Calm     87 % 0.00 in
01:56 30.4 °F 27.0 °F 30.16 in Calm     87 % 0.00 in
02:01 30.6 °F 26.9 °F 30.16 in Calm     86 % 0.00 in
02:06 30.9 °F 26.9 °F 30.16 in Calm     85 % 0.00 in
02:11 30.9 °F 26.9 °F 30.17 in Calm     85 % 0.00 in
02:16 30.5 °F 26.5 °F 30.17 in Calm     85 % 0.00 in
02:21 30.2 °F 26.2 °F 30.17 in Calm     85 % 0.00 in
02:26 30.2 °F 26.5 °F 30.17 in Calm     86 % 0.00 in
02:32 30.0 °F 26.3 °F 30.17 in Calm     86 % 0.00 in
02:37 30.3 °F 26.9 °F 30.17 in Calm     87 % 0.00 in
02:42 30.4 °F 26.7 °F 30.17 in Calm     86 % 0.00 in
02:47 30.3 °F 26.6 °F 30.17 in Calm     86 % 0.00 in
02:52 30.4 °F 26.7 °F 30.17 in Calm     86 % 0.00 in
02:57 30.6 °F 26.6 °F 30.17 in Calm     85 % 0.00 in
03:02 30.6 °F 26.6 °F 30.18 in Calm     85 % 0.00 in
03:07 30.3 °F 26.3 °F 30.18 in Calm     85 % 0.00 in
03:12 29.9 °F 26.2 °F 30.18 in Calm     86 % 0.00 in
03:17 29.6 °F 26.2 °F 30.18 in Calm     87 % 0.00 in
03:22 29.6 °F 26.5 °F 30.18 in Calm     88 % 0.00 in
03:27 29.6 °F 26.5 °F 30.18 in Calm     88 % 0.00 in
03:32 29.5 °F 26.4 °F 30.18 in Calm     88 % 0.00 in
03:37 29.6 °F 26.5 °F 30.18 in Calm     88 % 0.00 in
03:42 29.6 °F 26.5 °F 30.18 in Calm     88 % 0.00 in
03:47 29.7 °F 26.3 °F 30.18 in Calm     87 % 0.00 in
03:52 29.6 °F 26.2 °F 30.18 in Calm     87 % 0.00 in
03:57 29.7 °F 26.3 °F 30.18 in Calm     87 % 0.00 in
04:02 29.8 °F 26.4 °F 30.18 in Calm     87 % 0.00 in
04:07 30.0 °F 26.3 °F 30.18 in Calm     86 % 0.00 in
04:12 30.1 °F 26.4 °F 30.19 in Calm     86 % 0.00 in
04:17 30.1 °F 26.1 °F 30.19 in Calm     85 % 0.00 in
04:22 30.1 °F 26.1 °F 30.19 in Calm     85 % 0.00 in
04:27 30.2 °F 26.2 °F 30.19 in Calm     85 % 0.00 in
04:32 30.2 °F 26.2 °F 30.19 in Calm     85 % 0.00 in
04:37 30.0 °F 26.0 °F 30.20 in Calm     85 % 0.00 in
04:42 29.6 °F 25.6 °F 30.20 in Calm     85 % 0.00 in
04:47 29.2 °F 25.5 °F 30.20 in Calm     86 % 0.00 in
04:52 29.0 °F 25.6 °F 30.20 in Calm     87 % 0.00 in
04:57 28.9 °F 25.8 °F 30.20 in Calm     88 % 0.00 in
05:02 28.7 °F 25.6 °F 30.20 in Calm     88 % 0.00 in
05:07 28.5 °F 25.4 °F 30.20 in Calm     88 % 0.00 in
05:12 28.6 °F 25.8 °F 30.20 in Calm     89 % 0.00 in
05:17 28.7 °F 25.9 °F 30.20 in Calm     89 % 0.00 in
05:22 28.8 °F 25.7 °F 30.20 in Calm     88 % 0.00 in
05:27 28.8 °F 25.4 °F 30.21 in Calm     87 % 0.00 in
05:32 28.8 °F 25.4 °F 30.21 in Calm     87 % 0.00 in
05:37 28.8 °F 25.4 °F 30.21 in Calm     87 % 0.00 in
05:42 28.6 °F 25.2 °F 30.21 in Calm     87 % 0.00 in
05:47 28.5 °F 25.1 °F 30.21 in Calm     87 % 0.00 in
05:52 28.3 °F 25.2 °F 30.21 in Calm     88 % 0.00 in
05:57 28.3 °F 25.2 °F 30.22 in Calm     88 % 0.00 in
06:02 28.3 °F 25.2 °F 30.22 in Calm     88 % 0.00 in
06:07 28.1 °F 25.0 °F 30.22 in Calm     88 % 0.00 in
06:12 28.1 °F 25.0 °F 30.22 in Calm     88 % 0.00 in
06:17 28.1 °F 25.0 °F 30.23 in Calm     88 % 0.00 in
06:22 27.8 °F 24.7 °F 30.23 in Calm     88 % 0.00 in
06:27 27.7 °F 24.6 °F 30.23 in Calm     88 % 0.00 in
06:32 27.7 °F 24.6 °F 30.23 in Calm     88 % 0.00 in
06:37 27.7 °F 24.6 °F 30.23 in Calm     88 % 0.00 in
06:42 27.8 °F 24.7 °F 30.24 in Calm     88 % 0.00 in
06:47 28.0 °F 24.9 °F 30.24 in Calm     88 % 0.00 in
06:52 28.1 °F 25.0 °F 30.24 in Calm     88 % 0.00 in
06:57 28.1 °F 25.0 °F 30.24 in Calm     88 % 0.00 in
07:02 28.1 °F 25.0 °F 30.25 in Calm     88 % 0.00 in
07:07 28.2 °F 25.1 °F 30.25 in Calm     88 % 0.00 in
07:12 28.4 °F 25.3 °F 30.25 in Calm     88 % 0.00 in
07:17 28.7 °F 25.3 °F 30.25 in Calm     87 % 0.00 in
07:22 28.9 °F 25.5 °F 30.26 in Calm     87 % 0.00 in
07:27 29.3 °F 25.9 °F 30.26 in Calm     87 % 0.00 in
07:32 29.8 °F 26.4 °F 30.26 in Calm     87 % 0.00 in
07:37 30.4 °F 26.7 °F 30.26 in Calm     86 % 0.00 in
07:42 31.6 °F 27.9 °F 30.27 in Calm     86 % 0.00 in
07:47 33.2 °F 28.6 °F 30.27 in ENE 1.2 mph   83 % 0.00 in
07:52 34.5 °F 29.0 °F 30.27 in Calm     80 % 0.00 in
07:57 35.7 °F 29.5 °F 30.27 in SE 1.2 mph 1.2 mph 78 % 0.00 in
08:02 36.6 °F 29.7 °F 30.28 in Calm     76 % 0.00 in
08:07 37.3 °F 29.8 °F 30.28 in SSE 1.2 mph 1.2 mph 74 % 0.00 in
08:12 38.0 °F 30.1 °F 30.28 in Calm     73 % 0.00 in
08:17 38.6 °F 30.0 °F 30.28 in ESE 2.3 mph 2.3 mph 71 % 0.00 in
08:22 39.0 °F 30.0 °F 30.28 in East 1.2 mph   70 % 0.00 in
08:27 39.5 °F 29.8 °F 30.28 in SSE 2.3 mph 2.3 mph 68 % 0.00 in
08:32 39.9 °F 30.2 °F 30.28 in Calm     68 % 0.00 in
08:37 40.6 °F 30.1 °F 30.29 in SSE 2.3 mph 2.3 mph 66 % 0.00 in
08:42 41.2 °F 30.3 °F 30.29 in SSE 1.2 mph 1.2 mph 65 % 0.00 in
08:47 41.8 °F 30.1 °F 30.29 in SSW 2.0 mph 2.0 mph 63 % 0.00 in
08:53 42.3 °F 30.2 °F 30.29 in South 3.5 mph 3.5 mph 62 % 0.00 in
08:58 42.9 °F 30.4 °F 30.29 in SSE 1.0 mph 1.0 mph 61 % 0.00 in
09:03 43.4 °F 30.4 °F 30.29 in Calm     60 % 0.00 in
09:08 43.6 °F 29.8 °F 30.29 in Calm     58 % 0.00 in
09:13 44.0 °F 29.7 °F 30.28 in South 3.5 mph 3.5 mph 57 % 0.00 in
09:18 44.2 °F 29.9 °F 30.28 in SE 2.3 mph 2.3 mph 57 % 0.00 in
09:23 44.7 °F 30.0 °F 30.28 in SSE 2.3 mph 2.3 mph 56 % 0.00 in
09:28 45.2 °F 30.0 °F 30.28 in SSW 2.0 mph 2.0 mph 55 % 0.00 in
09:33 45.5 °F 30.3 °F 30.28 in SSE 2.3 mph 2.3 mph 55 % 0.00 in
09:38 45.5 °F 29.3 °F 30.28 in SSE 3.5 mph 3.5 mph 53 % 0.00 in
09:43 45.7 °F 30.0 °F 30.28 in SE 3.5 mph 3.5 mph 54 % 0.00 in
09:48 46.0 °F 29.3 °F 30.28 in SSE 4.6 mph 4.6 mph 52 % 0.00 in
09:53 46.5 °F 30.3 °F 30.28 in South 4.0 mph 4.0 mph 53 % 0.00 in
09:58 46.8 °F 30.1 °F 30.28 in South 2.3 mph 2.3 mph 52 % 0.00 in
10:03 47.1 °F 30.4 °F 30.28 in NW 3.5 mph 3.5 mph 52 % 0.00 in
10:08 47.3 °F 30.5 °F 30.28 in West 3.5 mph 3.5 mph 52 % 0.00 in
10:13 47.2 °F 30.9 °F 30.28 in South 2.3 mph 2.3 mph 53 % 0.00 in
10:18 47.5 °F 30.3 °F 30.28 in SE 3.0 mph 3.0 mph 51 % 0.00 in
10:23 47.6 °F 30.8 °F 30.28 in SSE 3.5 mph 3.5 mph 52 % 0.00 in
10:28 48.2 °F 30.9 °F 30.28 in SE 5.8 mph 5.8 mph 51 % 0.00 in
10:33 48.2 °F 31.4 °F 30.27 in ENE 3.5 mph 3.5 mph 52 % 0.00 in
10:38 48.4 °F 31.6 °F 30.27 in SSW 1.0 mph 1.0 mph 52 % 0.00 in
10:43 48.8 °F 31.5 °F 30.27 in South 3.0 mph 3.0 mph 51 % 0.00 in
10:48 49.3 °F 31.4 °F 30.27 in SW 4.6 mph 4.6 mph 50 % 0.00 in
10:53 50.0 °F 31.6 °F 30.27 in SSW 3.5 mph 3.5 mph 49 % 0.00 in
10:58 50.4 °F 31.4 °F 30.27 in SSE 3.5 mph 3.5 mph 48 % 0.00 in
11:03 50.4 °F 30.9 °F 30.27 in South 1.2 mph 1.2 mph 47 % 0.00 in
11:08 50.6 °F 31.6 °F 30.26 in East 3.5 mph 3.5 mph 48 % 0.00 in
11:13 50.9 °F 31.4 °F 30.26 in South 4.6 mph 4.6 mph 47 % 0.00 in
11:18 50.9 °F 31.4 °F 30.26 in SE 3.5 mph 3.5 mph 47 % 0.00 in
11:23 51.3 °F 32.3 °F 30.26 in SSE 2.3 mph 2.3 mph 48 % 0.00 in
11:28 51.7 °F 31.0 °F 30.26 in SSE 3.5 mph 3.5 mph 45 % 0.00 in
11:33 52.1 °F 32.5 °F 30.26 in NNW 1.2 mph   47 % 0.00 in
11:38 52.1 °F 30.8 °F 30.25 in South 3.0 mph 3.0 mph 44 % 0.00 in
11:43 52.1 °F 31.4 °F 30.25 in ESE 3.0 mph 3.0 mph 45 % 0.00 in
11:48 52.9 °F 31.6 °F 30.25 in ENE 4.0 mph 4.0 mph 44 % 0.00 in
11:53 53.2 °F 30.7 °F 30.25 in South 4.6 mph 4.6 mph 42 % 0.00 in
11:54 53.2 °F 30.7 °F 30.25 in SSE 2.3 mph 2.3 mph 42 % 0.00 in
11:59 52.8 °F 30.9 °F 30.25 in NNW 3.5 mph 3.5 mph 43 % 0.00 in
12:04 52.7 °F 29.6 °F 30.25 in NW 5.8 mph 5.8 mph 41 % 0.00 in
12:09 52.7 °F 31.4 °F 30.24 in SSE 1.2 mph 1.2 mph 44 % 0.00 in
12:14 53.2 °F 30.1 °F 30.24 in SSW 5.8 mph 5.8 mph 41 % 0.00 in
12:19 53.6 °F 30.4 °F 30.24 in NNW 3.5 mph 3.5 mph 41 % 0.00 in
12:24 53.3 °F 30.8 °F 30.23 in Calm     42 % 0.00 in
12:25 53.4 °F 30.9 °F 30.23 in Calm     42 % 0.00 in
12:30 53.5 °F 29.1 °F 30.23 in NW 2.3 mph   39 % 0.00 in
12:35 53.6 °F 27.9 °F 30.23 in NNW 3.5 mph 3.5 mph 37 % 0.00 in
12:40 53.5 °F 27.8 °F 30.23 in Calm     37 % 0.00 in
12:45 54.0 °F 28.9 °F 30.23 in SSE 3.5 mph 3.5 mph 38 % 0.00 in
12:50 54.3 °F 29.8 °F 30.22 in NW 1.2 mph   39 % 0.00 in
12:55 54.2 °F 27.8 °F 30.22 in WSW 3.5 mph 3.5 mph 36 % 0.00 in
13:00 54.4 °F 28.0 °F 30.22 in SSE 4.0 mph 4.0 mph 36 % 0.00 in
13:05 54.7 °F 27.6 °F 30.22 in SSE 3.5 mph 3.5 mph 35 % 0.00 in
13:10 55.0 °F 27.8 °F 30.21 in SE 3.5 mph 3.5 mph 35 % 0.00 in
13:15 55.3 °F 28.1 °F 30.21 in SSE 3.5 mph 3.5 mph 35 % 0.00 in
13:20 55.0 °F 27.1 °F 30.21 in NNW 3.5 mph 3.5 mph 34 % 0.00 in
13:25 55.0 °F 26.4 °F 30.20 in WNW 3.5 mph 3.5 mph 33 % 0.00 in
13:30 54.5 °F 27.4 °F 30.20 in South 5.8 mph 5.8 mph 35 % 0.00 in
13:35 54.6 °F 26.0 °F 30.20 in WNW 2.3 mph 2.3 mph 33 % 0.00 in
13:40 54.7 °F 28.2 °F 30.20 in SSE 2.3 mph 2.3 mph 36 % 0.00 in
13:45 55.1 °F 27.9 °F 30.20 in ESE 3.5 mph 3.5 mph 35 % 0.00 in
13:50 55.0 °F 27.8 °F 30.20 in North 3.5 mph 3.5 mph 35 % 0.00 in
13:55 54.6 °F 27.5 °F 30.20 in NW 2.3 mph   35 % 0.00 in
14:00 54.7 °F 28.2 °F 30.20 in SE 5.8 mph 5.8 mph 36 % 0.00 in
14:05 55.3 °F 27.4 °F 30.20 in SSE 2.3 mph 2.3 mph 34 % 0.00 in
14:10 55.9 °F 29.3 °F 30.20 in SSW 1.2 mph 1.3 mph 36 % 0.00 in
14:15 54.7 °F 26.1 °F 30.20 in NNW 2.3 mph 2.3 mph 33 % 0.00 in
14:20 54.6 °F 28.2 °F 30.20 in South 3.5 mph 3.5 mph 36 % 0.00 in
14:25 54.8 °F 26.9 °F 30.20 in North 3.0 mph 3.0 mph 34 % 0.00 in
14:30 54.8 °F 27.6 °F 30.20 in NW 2.3 mph 2.3 mph 35 % 0.00 in
14:35 55.0 °F 27.1 °F 30.20 in WNW 3.5 mph 3.5 mph 34 % 0.00 in
14:40 54.7 °F 27.6 °F 30.19 in West 2.3 mph   35 % 0.00 in
14:45 54.8 °F 25.5 °F 30.19 in NW 3.5 mph 3.5 mph 32 % 0.00 in
14:50 54.5 °F 26.7 °F 30.19 in South 1.2 mph 1.2 mph 34 % 0.00 in
14:55 54.9 °F 27.7 °F 30.19 in SSW 3.5 mph 3.5 mph 35 % 0.00 in
15:00 55.1 °F 27.9 °F 30.19 in ESE 3.5 mph 3.5 mph 35 % 0.00 in
15:05 54.8 °F 27.6 °F 30.19 in SW 3.5 mph 3.5 mph 35 % 0.00 in
15:10 54.9 °F 27.0 °F 30.19 in Calm     34 % 0.00 in
15:15 54.4 °F 25.9 °F 30.19 in West 1.2 mph   33 % 0.00 in
15:20 54.1 °F 27.0 °F 30.19 in SSE 2.0 mph 2.0 mph 35 % 0.00 in
15:25 53.9 °F 26.8 °F 30.19 in North 1.2 mph 1.2 mph 35 % 0.00 in
15:30 53.9 °F 27.5 °F 30.19 in SSW 1.2 mph 1.2 mph 36 % 0.00 in
15:35 53.9 °F 26.8 °F 30.19 in NW 3.5 mph 3.5 mph 35 % 0.00 in
15:40 53.6 °F 26.6 °F 30.19 in NNW 1.2 mph 1.2 mph 35 % 0.00 in
15:45 53.4 °F 26.4 °F 30.19 in NW 3.5 mph 3.5 mph 35 % 0.00 in
15:50 53.2 °F 26.2 °F 30.19 in WSW 3.5 mph 3.5 mph 35 % 0.00 in
15:55 53.1 °F 26.1 °F 30.19 in WSW 3.5 mph 3.5 mph 35 % 0.00 in
16:00 53.0 °F 25.3 °F 30.19 in West 2.3 mph   34 % 0.00 in
16:05 53.0 °F 26.0 °F 30.19 in NNW 1.2 mph 1.2 mph 35 % 0.00 in
16:10 52.9 °F 25.3 °F 30.19 in NW 2.3 mph   34 % 0.00 in
16:15 52.9 °F 26.0 °F 30.19 in Calm     35 % 0.00 in
16:20 52.8 °F 25.9 °F 30.19 in WNW 2.3 mph 2.3 mph 35 % 0.00 in
16:25 52.5 °F 24.9 °F 30.19 in Calm     34 % 0.00 in
16:30 52.3 °F 25.4 °F 30.19 in Calm     35 % 0.00 in
16:36 52.3 °F 26.1 °F 30.19 in NW 1.0 mph   36 % 0.00 in
16:41 52.4 °F 25.5 °F 30.19 in NNW 1.2 mph   35 % 0.00 in
16:46 52.3 °F 24.7 °F 30.19 in Calm     34 % 0.00 in
16:51 52.1 °F 26.6 °F 30.18 in Calm   0.1 mph 37 % 0.00 in
16:56 51.9 °F 27.1 °F 30.19 in Calm     38 % 0.00 in
17:01 51.7 °F 26.9 °F 30.18 in Calm     38 % 0.00 in
17:05 51.7 °F 25.6 °F 30.18 in Calm     36 % 0.00 in
17:10 51.6 °F 24.8 °F 30.18 in Calm     35 % 0.00 in
17:16 51.3 °F 24.5 °F 30.18 in Calm     35 % 0.00 in
17:20 51.0 °F 24.3 °F 30.18 in Calm     35 % 0.00 in
17:25 50.7 °F 24.0 °F 30.18 in Calm     35 % 0.00 in
17:30 50.4 °F 23.7 °F 30.18 in Calm     35 % 0.00 in
17:35 50.1 °F 22.8 °F 30.18 in Calm     34 % 0.00 in
17:41 49.8 °F 25.2 °F 30.18 in Calm     38 % 0.00 in
17:46 49.5 °F 24.3 °F 30.18 in Calm     37 % 0.00 in
17:51 49.1 °F 26.4 °F 30.18 in Calm     41 % 0.00 in
17:56 48.6 °F 27.6 °F 30.18 in Calm     44 % 0.00 in
18:01 48.2 °F 26.7 °F 30.18 in Calm     43 % 0.00 in
18:06 47.5 °F 27.2 °F 30.18 in Calm     45 % 0.00 in
18:11 47.2 °F 27.5 °F 30.18 in Calm     46 % 0.00 in
18:16 46.9 °F 27.2 °F 30.18 in Calm     46 % 0.00 in
18:21 46.4 °F 26.7 °F 30.18 in Calm     46 % 0.00 in
18:26 46.1 °F 28.5 °F 30.18 in Calm     50 % 0.00 in
18:31 45.8 °F 27.7 °F 30.18 in Calm     49 % 0.00 in
18:36 45.5 °F 28.9 °F 30.18 in SSE 1.2 mph 1.2 mph 52 % 0.00 in
18:41 44.9 °F 28.8 °F 30.18 in Calm     53 % 0.00 in
18:46 44.6 °F 27.1 °F 30.18 in Calm     50 % 0.00 in
18:51 44.4 °F 26.9 °F 30.18 in Calm     50 % 0.00 in
18:56 44.0 °F 28.0 °F 30.18 in Calm     53 % 0.00 in
19:01 43.5 °F 28.8 °F 30.18 in Calm     56 % 0.00 in
19:06 43.4 °F 30.8 °F 30.18 in Calm     61 % 0.00 in
19:11 43.3 °F 29.5 °F 30.18 in Calm     58 % 0.00 in
19:16 43.1 °F 31.0 °F 30.18 in Calm     62 % 0.00 in
19:21 42.7 °F 32.5 °F 30.18 in Calm     67 % 0.00 in
19:26 41.8 °F 31.6 °F 30.18 in Calm     67 % 0.00 in
19:31 41.4 °F 30.9 °F 30.19 in Calm     66 % 0.00 in
19:36 41.4 °F 30.5 °F 30.19 in Calm     65 % 0.00 in
19:41 41.2 °F 30.3 °F 30.19 in Calm     65 % 0.00 in
19:46 40.9 °F 30.0 °F 30.19 in Calm     65 % 0.00 in
19:51 40.6 °F 30.9 °F 30.19 in Calm     68 % 0.00 in
19:56 40.6 °F 31.6 °F 30.19 in Calm     70 % 0.00 in
20:01 40.5 °F 32.2 °F 30.19 in Calm     72 % 0.00 in
20:06 40.3 °F 32.0 °F 30.19 in Calm     72 % 0.00 in
20:11 40.0 °F 31.4 °F 30.19 in Calm     71 % 0.00 in
20:16 39.7 °F 31.4 °F 30.19 in Calm     72 % 0.00 in
20:21 39.5 °F 31.2 °F 30.20 in Calm     72 % 0.00 in
20:26 39.6 °F 31.3 °F 30.20 in Calm     72 % 0.00 in
20:31 39.9 °F 31.3 °F 30.20 in Calm     71 % 0.00 in
20:36 40.1 °F 30.7 °F 30.20 in Calm     69 % 0.00 in
20:41 40.2 °F 30.5 °F 30.20 in Calm     68 % 0.00 in
20:46 40.6 °F 30.5 °F 30.20 in Calm     67 % 0.00 in
20:51 40.9 °F 30.8 °F 30.20 in Calm     67 % 0.00 in
20:56 40.9 °F 30.4 °F 30.20 in Calm     66 % 0.00 in
21:01 40.9 °F 30.4 °F 30.20 in Calm     66 % 0.00 in
21:06 41.1 °F 31.0 °F 30.20 in Calm     67 % 0.00 in
21:11 41.4 °F 32.0 °F 30.20 in Calm     69 % 0.00 in
21:16 41.7 °F 31.9 °F 30.20 in Calm     68 % 0.00 in
21:21 41.8 °F 32.4 °F 30.20 in Calm     69 % 0.00 in
21:26 41.6 °F 31.8 °F 30.20 in Calm     68 % 0.00 in
21:31 41.5 °F 30.6 °F 30.20 in Calm     65 % 0.00 in
21:36 41.5 °F 31.4 °F 30.20 in Calm     67 % 0.00 in
21:41 41.6 °F 32.2 °F 30.20 in Calm     69 % 0.00 in
21:46 41.5 °F 32.4 °F 30.20 in Calm     70 % 0.00 in
21:51 41.4 °F 32.3 °F 30.20 in Calm     70 % 0.00 in
21:56 41.3 °F 32.2 °F 30.20 in Calm     70 % 0.00 in
22:01 41.3 °F 32.2 °F 30.20 in Calm     70 % 0.00 in
22:06 41.2 °F 32.2 °F 30.21 in Calm     70 % 0.00 in
22:11 41.1 °F 33.4 °F 30.21 in Calm     74 % 0.00 in
22:16 41.0 °F 33.3 °F 30.20 in Calm     74 % 0.00 in
22:21 40.9 °F 33.2 °F 30.21 in Calm     74 % 0.00 in
22:26 40.7 °F 32.4 °F 30.21 in Calm     72 % 0.00 in
22:31 40.6 °F 31.9 °F 30.21 in Calm     71 % 0.00 in
22:33 40.6 °F 31.9 °F 30.21 in Calm     71 % 0.00 in
22:38 40.5 °F 32.2 °F 30.21 in Calm     72 % 0.00 in
22:43 40.4 °F 32.1 °F 30.21 in Calm     72 % 0.00 in
22:48 40.4 °F 32.1 °F 30.21 in Calm     72 % 0.00 in
22:53 40.4 °F 32.4 °F 30.21 in Calm     73 % 0.00 in
22:58 40.3 °F 32.7 °F 30.21 in Calm     74 % 0.00 in
23:03 40.3 °F 32.7 °F 30.21 in Calm     74 % 0.00 in
23:08 40.1 °F 32.1 °F 30.21 in Calm     73 % 0.00 in
23:13 40.2 °F 32.2 °F 30.21 in Calm     73 % 0.00 in
23:18 40.1 °F 31.8 °F 30.21 in Calm     72 % 0.00 in
23:23 40.1 °F 32.1 °F 30.21 in Calm     73 % 0.00 in
23:28 40.1 °F 32.5 °F 30.20 in Calm     74 % 0.00 in
23:33 40.1 °F 31.8 °F 30.20 in Calm     72 % 0.00 in
23:38 40.5 °F 30.8 °F 30.20 in Calm     68 % 0.00 in
23:43 40.8 °F 30.7 °F 30.20 in Calm     67 % 0.00 in
23:48 41.0 °F 30.5 °F 30.20 in Calm     66 % 0.00 in
23:53 41.2 °F 29.9 °F 30.20 in ESE 1.2 mph   64 % 0.00 in
23:58 41.5 °F 29.8 °F 30.20 in Calm     63 % 0.00 in
Park Place, Exeter, Tulare County, California, USA
Compliments of Weather Underground - 2.75 mb